sensor_id;sensor_type;location;lat;lon;timestamp;temperature;humidity
4594;DHT22;2309;51.674;8.368;2022-09-21T05:40:49;3.80;99.90
4594;DHT22;2309;51.674;8.368;2022-09-21T05:43:16;3.90;99.90
4594;DHT22;2309;51.674;8.368;2022-09-21T05:45:44;4.00;99.90
4594;DHT22;2309;51.674;8.368;2022-09-21T05:48:14;4.30;99.90
4594;DHT22;2309;51.674;8.368;2022-09-21T05:50:40;4.40;99.90
4594;DHT22;2309;51.674;8.368;2022-09-21T05:53:14;4.50;99.90
4594;DHT22;2309;51.674;8.368;2022-09-21T05:58:09;5.10;99.90
4594;DHT22;2309;51.674;8.368;2022-09-21T06:00:37;4.70;99.90
4594;DHT22;2309;51.674;8.368;2022-09-21T06:03:07;4.80;99.90
4594;DHT22;2309;51.674;8.368;2022-09-21T06:05:31;4.80;99.90
4594;DHT22;2309;51.674;8.368;2022-09-21T06:08:02;5.00;99.90
4594;DHT22;2309;51.674;8.368;2022-09-21T06:10:31;5.10;99.90
4594;DHT22;2309;51.674;8.368;2022-09-21T06:12:57;5.10;99.90
4594;DHT22;2309;51.674;8.368;2022-09-21T06:15:25;5.20;99.90
4594;DHT22;2309;51.674;8.368;2022-09-21T06:17:53;5.30;99.90
4594;DHT22;2309;51.674;8.368;2022-09-21T06:20:24;5.30;99.90
4594;DHT22;2309;51.674;8.368;2022-09-21T06:22:51;6.50;99.90
4594;DHT22;2309;51.674;8.368;2022-09-21T06:25:18;5.60;99.90
4594;DHT22;2309;51.674;8.368;2022-09-21T06:27:46;5.90;99.90
4594;DHT22;2309;51.674;8.368;2022-09-21T06:30:13;6.00;99.90
4594;DHT22;2309;51.674;8.368;2022-09-21T06:32:40;6.00;99.90
4594;DHT22;2309;51.674;8.368;2022-09-21T06:35:11;6.40;99.90
4594;DHT22;2309;51.674;8.368;2022-09-21T06:37:41;6.40;99.90
4594;DHT22;2309;51.674;8.368;2022-09-21T06:40:11;6.40;99.90
4594;DHT22;2309;51.674;8.368;2022-09-21T06:42:40;6.60;99.90
4594;DHT22;2309;51.674;8.368;2022-09-21T06:45:09;6.80;99.90
4594;DHT22;2309;51.674;8.368;2022-09-21T06:47:36;6.80;99.90
4594;DHT22;2309;51.674;8.368;2022-09-21T06:50:03;7.00;99.90
4594;DHT22;2309;51.674;8.368;2022-09-21T06:54:58;7.30;99.90
4594;DHT22;2309;51.674;8.368;2022-09-21T06:57:25;7.30;99.90
4594;DHT22;2309;51.674;8.368;2022-09-21T06:59:52;7.40;99.90
4594;DHT22;2309;51.674;8.368;2022-09-21T07:02:19;7.50;99.90
4594;DHT22;2309;51.674;8.368;2022-09-21T07:04:52;7.70;99.90
4594;DHT22;2309;51.674;8.368;2022-09-21T07:07:19;7.80;99.90
4594;DHT22;2309;51.674;8.368;2022-09-21T07:09:46;7.90;99.90
4594;DHT22;2309;51.674;8.368;2022-09-21T07:12:17;8.00;99.90
4594;DHT22;2309;51.674;8.368;2022-09-21T07:14:42;8.00;99.90
4594;DHT22;2309;51.674;8.368;2022-09-21T07:17:11;8.20;99.90
4594;DHT22;2309;51.674;8.368;2022-09-21T07:19:39;8.40;99.90
4594;DHT22;2309;51.674;8.368;2022-09-21T07:22:06;8.60;99.90
4594;DHT22;2309;51.674;8.368;2022-09-21T07:24:36;8.60;99.90
4594;DHT22;2309;51.674;8.368;2022-09-21T07:27:08;8.80;99.90
4594;DHT22;2309;51.674;8.368;2022-09-21T07:29:33;8.90;99.90
4594;DHT22;2309;51.674;8.368;2022-09-21T07:32:02;8.90;99.90
4594;DHT22;2309;51.674;8.368;2022-09-21T07:34:33;9.10;99.90
4594;DHT22;2309;51.674;8.368;2022-09-21T07:36:58;9.30;99.90
4594;DHT22;2309;51.674;8.368;2022-09-21T07:39:25;9.40;99.90
4594;DHT22;2309;51.674;8.368;2022-09-21T07:41:52;9.50;99.90
4594;DHT22;2309;51.674;8.368;2022-09-21T07:44:19;9.60;99.90
4594;DHT22;2309;51.674;8.368;2022-09-21T07:46:49;9.90;99.90
4594;DHT22;2309;51.674;8.368;2022-09-21T07:49:18;9.90;99.90
4594;DHT22;2309;51.674;8.368;2022-09-21T07:51:46;10.10;99.90
4594;DHT22;2309;51.674;8.368;2022-09-21T07:54:14;10.30;99.90
4594;DHT22;2309;51.674;8.368;2022-09-21T07:56:41;10.40;99.90
4594;DHT22;2309;51.674;8.368;2022-09-21T07:59:09;10.60;99.90
4594;DHT22;2309;51.674;8.368;2022-09-21T08:01:38;10.80;99.90
4594;DHT22;2309;51.674;8.368;2022-09-21T08:04:06;10.80;99.90
4594;DHT22;2309;51.674;8.368;2022-09-21T08:06:34;11.00;99.90
4594;DHT22;2309;51.674;8.368;2022-09-21T08:09:05;11.00;99.90
4594;DHT22;2309;51.674;8.368;2022-09-21T08:11:31;11.30;99.90
4594;DHT22;2309;51.674;8.368;2022-09-21T08:14:00;11.30;99.90
4594;DHT22;2309;51.674;8.368;2022-09-21T08:16:28;11.50;99.90
4594;DHT22;2309;51.674;8.368;2022-09-21T08:18:57;11.70;99.90
4594;DHT22;2309;51.674;8.368;2022-09-21T08:21:24;11.70;99.90
4594;DHT22;2309;51.674;8.368;2022-09-21T08:23:51;11.90;99.90
4594;DHT22;2309;51.674;8.368;2022-09-21T08:26:18;12.00;99.90
4594;DHT22;2309;51.674;8.368;2022-09-21T08:28:46;12.00;99.90
4594;DHT22;2309;51.674;8.368;2022-09-21T08:31:15;12.10;99.90
4594;DHT22;2309;51.674;8.368;2022-09-21T08:33:43;12.20;99.90
4594;DHT22;2309;51.674;8.368;2022-09-21T08:36:12;12.30;99.90
4594;DHT22;2309;51.674;8.368;2022-09-21T08:38:41;12.60;99.90
4594;DHT22;2309;51.674;8.368;2022-09-21T08:44:13;13.10;99.90
4594;DHT22;2309;51.674;8.368;2022-09-21T08:49:13;13.30;99.90
4594;DHT22;2309;51.674;8.368;2022-09-21T08:54:08;13.40;99.90
4594;DHT22;2309;51.674;8.368;2022-09-21T08:56:33;13.50;99.90
4594;DHT22;2309;51.674;8.368;2022-09-21T08:59:01;13.60;99.90
4594;DHT22;2309;51.674;8.368;2022-09-21T09:01:31;13.70;99.90
4594;DHT22;2309;51.674;8.368;2022-09-21T09:04:08;13.80;99.90
4594;DHT22;2309;51.674;8.368;2022-09-21T09:09:07;13.80;99.90
4594;DHT22;2309;51.674;8.368;2022-09-21T09:11:33;13.90;99.90
4594;DHT22;2309;51.674;8.368;2022-09-21T09:14:16;14.30;99.90
4594;DHT22;2309;51.674;8.368;2022-09-21T09:16:33;14.50;99.90
4594;DHT22;2309;51.674;8.368;2022-09-21T09:18:59;14.80;99.90
4594;DHT22;2309;51.674;8.368;2022-09-21T09:21:38;15.00;99.90
4594;DHT22;2309;51.674;8.368;2022-09-21T09:23:53;14.90;99.90
4594;DHT22;2309;51.674;8.368;2022-09-21T09:26:22;14.90;99.90
4594;DHT22;2309;51.674;8.368;2022-09-21T09:28:52;14.90;99.90
4594;DHT22;2309;51.674;8.368;2022-09-21T09:31:21;14.70;99.90
4594;DHT22;2309;51.674;8.368;2022-09-21T09:33:59;14.70;99.90
4594;DHT22;2309;51.674;8.368;2022-09-21T09:36:24;14.80;99.90
4594;DHT22;2309;51.674;8.368;2022-09-21T09:49:04;16.10;99.90
4594;DHT22;2309;51.674;8.368;2022-09-21T09:51:21;15.90;99.90
4594;DHT22;2309;51.674;8.368;2022-09-21T09:59:38;16.50;99.00
4594;DHT22;2309;51.674;8.368;2022-09-21T10:02:32;16.50;93.50
4594;DHT22;2309;51.674;8.368;2022-09-21T10:07:01;16.60;89.10
4594;DHT22;2309;51.674;8.368;2022-09-21T10:09:38;16.80;81.60
4594;DHT22;2309;51.674;8.368;2022-09-21T10:12:35;16.40;82.20
4594;DHT22;2309;51.674;8.368;2022-09-21T10:14:33;16.50;83.10
4594;DHT22;2309;51.674;8.368;2022-09-21T10:17:03;16.80;57.30
4594;DHT22;2309;51.674;8.368;2022-09-21T10:19:29;16.80;56.50
4594;DHT22;2309;51.674;8.368;2022-09-21T10:21:56;17.00;67.40
4594;DHT22;2309;51.674;8.368;2022-09-21T10:24:25;17.10;70.30
4594;DHT22;2309;51.674;8.368;2022-09-21T10:27:01;17.40;63.80
4594;DHT22;2309;51.674;8.368;2022-09-21T10:31:54;17.80;57.80
4594;DHT22;2309;51.674;8.368;2022-09-21T10:34:19;17.50;50.70
4594;DHT22;2309;51.674;8.368;2022-09-21T10:36:48;17.60;52.60
4594;DHT22;2309;51.674;8.368;2022-09-21T10:41:47;17.60;40.50
4594;DHT22;2309;51.674;8.368;2022-09-21T10:44:14;18.80;39.20
4594;DHT22;2309;51.674;8.368;2022-09-21T12:16:37;26.10;1.00
4594;DHT22;2309;51.674;8.368;2022-09-21T12:21:38;24.50;1.00
4594;DHT22;2309;51.674;8.368;2022-09-21T12:26:31;24.90;1.00
4594;DHT22;2309;51.674;8.368;2022-09-21T12:49:50;28.10;1.00
4594;DHT22;2309;51.674;8.368;2022-09-21T13:36:32;29.50;1.00
4594;DHT22;2309;51.674;8.368;2022-09-21T13:41:43;27.30;1.00
4594;DHT22;2309;51.674;8.368;2022-09-21T13:44:44;25.60;1.00
4594;DHT22;2309;51.674;8.368;2022-09-21T13:46:49;24.40;1.00
4594;DHT22;2309;51.674;8.368;2022-09-21T13:51:53;25.20;1.00
4594;DHT22;2309;51.674;8.368;2022-09-21T15:00:19;30.50;1.00
